createdAt,value
2023-05-02T00:00:20.866Z,17.10
2023-05-02T00:02:48.266Z,17.10
2023-05-02T00:05:15.843Z,17.10
2023-05-02T00:07:42.943Z,17.10
2023-05-02T00:10:15.351Z,17.00
2023-05-02T00:12:42.727Z,17.10
2023-05-02T00:15:15.132Z,17.10
2023-05-02T00:17:43.531Z,17.10
2023-05-02T00:20:12.118Z,17.00
2023-05-02T00:22:42.259Z,17.00
2023-05-02T00:25:16.067Z,17.00
2023-05-02T00:27:50.987Z,17.10
2023-05-02T00:30:21.208Z,17.00
2023-05-02T00:32:50.299Z,17.00
2023-05-02T00:35:17.274Z,17.00
2023-05-02T00:37:46.270Z,17.00
2023-05-02T00:40:16.201Z,17.00
2023-05-02T00:42:43.095Z,17.00
2023-05-02T00:45:10.599Z,17.00
2023-05-02T00:47:38.096Z,17.00
2023-05-02T00:50:06.591Z,17.00
2023-05-02T00:52:35.940Z,16.90
2023-05-02T00:55:05.481Z,16.90
2023-05-02T00:57:34.165Z,17.00
2023-05-02T01:00:05.176Z,16.90
2023-05-02T01:02:49.719Z,16.90
2023-05-02T01:05:52.628Z,16.90
2023-05-02T01:08:40.530Z,16.80
2023-05-02T01:11:27.214Z,16.80
2023-05-02T01:13:59.107Z,16.90
2023-05-02T01:16:31.103Z,16.90
2023-05-02T01:18:59.766Z,16.90
2023-05-02T01:21:27.998Z,16.90
2023-05-02T01:24:19.965Z,16.90
2023-05-02T01:26:59.067Z,16.80
2023-05-02T01:29:33.616Z,16.80
2023-05-02T01:32:04.243Z,16.80
2023-05-02T01:34:33.329Z,16.80
2023-05-02T01:37:06.433Z,16.80
2023-05-02T01:39:40.375Z,16.80
2023-05-02T01:42:07.332Z,16.80
2023-05-02T01:44:39.655Z,16.70
2023-05-02T01:47:12.257Z,16.70
2023-05-02T01:49:41.080Z,16.70
2023-05-02T01:52:11.605Z,16.70
2023-05-02T01:54:40.284Z,16.60
2023-05-02T01:57:15.034Z,16.60
2023-05-02T01:59:44.934Z,16.60
2023-05-02T02:02:15.478Z,16.60
2023-05-02T02:04:46.503Z,16.60
2023-05-02T02:07:14.301Z,16.50
2023-05-02T02:09:43.638Z,16.50
2023-05-02T02:12:24.992Z,16.50
2023-05-02T02:15:03.065Z,16.50
2023-05-02T02:17:41.689Z,16.40
2023-05-02T02:20:11.563Z,16.40
2023-05-02T02:22:43.065Z,16.50
2023-05-02T02:25:15.290Z,16.50
2023-05-02T02:27:42.783Z,16.30
2023-05-02T02:30:10.752Z,16.40
2023-05-02T02:32:37.834Z,16.50
2023-05-02T02:35:05.844Z,16.50
2023-05-02T02:38:22.310Z,16.50
2023-05-02T02:41:25.972Z,16.50
2023-05-02T02:44:24.933Z,16.40
2023-05-02T02:47:10.581Z,16.40
2023-05-02T02:50:15.566Z,16.40
2023-05-02T02:53:16.971Z,16.40
2023-05-02T02:56:05.494Z,16.30
2023-05-02T02:58:48.799Z,16.30
2023-05-02T03:01:20.979Z,16.30
2023-05-02T03:03:49.869Z,16.30
2023-05-02T03:06:18.475Z,16.30
2023-05-02T03:08:45.723Z,16.30
2023-05-02T03:11:12.756Z,16.20
2023-05-02T03:13:42.235Z,16.20
2023-05-02T03:16:47.695Z,16.20
2023-05-02T03:19:16.912Z,16.20
2023-05-02T03:21:43.806Z,16.20
2023-05-02T03:24:10.674Z,16.20
2023-05-02T03:26:42.187Z,16.20
2023-05-02T03:29:11.392Z,16.10
2023-05-02T03:31:38.261Z,15.90
2023-05-02T03:34:05.150Z,16.10
2023-05-02T03:36:34.667Z,16.10
2023-05-02T03:39:04.180Z,16.10
2023-05-02T03:41:31.114Z,16.10
2023-05-02T03:44:02.587Z,16.10
2023-05-02T03:46:30.474Z,16.00
2023-05-02T03:49:00.248Z,16.00
2023-05-02T03:51:27.147Z,16.00
2023-05-02T03:53:58.487Z,16.00
2023-05-02T03:56:27.759Z,16.00
2023-05-02T03:58:54.871Z,15.90
2023-05-02T04:01:21.795Z,15.90
2023-05-02T04:03:52.383Z,15.90
2023-05-02T04:06:21.839Z,15.90
2023-05-02T04:08:51.607Z,15.80
2023-05-02T04:11:20.727Z,15.80
2023-05-02T04:13:52.000Z,15.80
2023-05-02T04:16:20.540Z,15.80
2023-05-02T04:18:47.506Z,15.70
2023-05-02T04:21:16.907Z,15.70
2023-05-02T04:23:43.787Z,15.70
2023-05-02T04:26:10.748Z,15.70
2023-05-02T04:28:42.176Z,15.70
2023-05-02T04:31:18.680Z,15.70
2023-05-02T04:33:50.998Z,15.60
2023-05-02T04:36:20.167Z,15.60
2023-05-02T04:38:49.116Z,15.60
2023-05-02T04:41:17.339Z,15.60
2023-05-02T04:43:44.960Z,15.70
2023-05-02T04:46:11.832Z,15.60
2023-05-02T04:48:42.195Z,15.70
2023-05-02T04:51:10.261Z,15.70
2023-05-02T04:53:39.850Z,15.60
2023-05-02T04:56:11.282Z,15.60
2023-05-02T04:58:43.536Z,15.60
2023-05-02T05:01:12.789Z,15.60
2023-05-02T05:03:39.851Z,15.60
2023-05-02T05:06:07.174Z,15.60
2023-05-02T05:08:36.533Z,15.60
2023-05-02T05:11:06.605Z,15.60
2023-05-02T05:13:33.443Z,15.60
2023-05-02T05:16:00.337Z,15.70
2023-05-02T05:18:27.247Z,15.70
2023-05-02T05:20:57.005Z,15.70
2023-05-02T05:23:23.978Z,15.70
2023-05-02T05:25:55.536Z,15.70
2023-05-02T05:28:24.839Z,15.80
2023-05-02T05:30:53.986Z,15.60
2023-05-02T05:33:21.047Z,15.70
2023-05-02T05:35:47.999Z,15.80
2023-05-02T05:38:17.301Z,15.80
2023-05-02T05:40:44.111Z,15.80
2023-05-02T05:43:11.011Z,15.80
2023-05-02T05:45:37.901Z,15.80
2023-05-02T05:48:05.328Z,15.80
2023-05-02T05:50:34.423Z,15.90
2023-05-02T05:53:01.490Z,15.90
2023-05-02T05:55:28.944Z,15.90
2023-05-02T05:57:55.836Z,16.00
2023-05-02T06:00:22.829Z,16.00
2023-05-02T06:02:49.801Z,16.00
2023-05-02T06:05:19.274Z,16.00
2023-05-02T06:07:46.425Z,16.10
2023-05-02T06:10:13.457Z,16.10
2023-05-02T06:12:42.676Z,16.10
2023-05-02T06:15:12.629Z,16.20
2023-05-02T06:17:39.558Z,16.20
2023-05-02T06:20:07.810Z,16.20
2023-05-02T06:22:35.152Z,16.30
2023-05-02T06:25:05.305Z,16.40
2023-05-02T06:27:33.667Z,16.40
2023-05-02T06:30:03.984Z,16.40
2023-05-02T06:32:34.357Z,16.50
2023-05-02T06:35:03.537Z,16.50
2023-05-02T06:37:37.138Z,16.60
2023-05-02T06:40:07.541Z,16.60
2023-05-02T06:42:34.417Z,16.70
2023-05-02T06:45:01.343Z,16.70
2023-05-02T06:47:28.867Z,16.80
2023-05-02T06:50:02.092Z,16.80
2023-05-02T06:52:31.808Z,16.80
2023-05-02T06:55:01.125Z,16.90
2023-05-02T06:57:30.280Z,16.90
2023-05-02T06:59:57.249Z,17.00
2023-05-02T07:02:26.783Z,17.00
2023-05-02T07:04:53.727Z,17.10
2023-05-02T07:07:25.543Z,17.20
2023-05-02T07:09:52.541Z,17.30
2023-05-02T07:12:22.455Z,17.50
2023-05-02T07:14:49.362Z,17.60
2023-05-02T07:17:16.205Z,17.80
2023-05-02T07:19:45.345Z,18.10
2023-05-02T07:22:14.858Z,18.30
2023-05-02T07:24:42.722Z,18.60
2023-05-02T07:27:13.311Z,18.80
2023-05-02T07:29:42.988Z,19.00
2023-05-02T07:32:12.425Z,19.10
2023-05-02T07:34:41.774Z,19.20
2023-05-02T07:37:08.618Z,19.30
2023-05-02T07:39:40.287Z,19.30
2023-05-02T07:42:07.289Z,19.40
2023-05-02T07:44:35.176Z,19.50
2023-05-02T07:47:03.047Z,19.60
2023-05-02T07:49:31.077Z,19.80
2023-05-02T07:51:58.406Z,19.90
2023-05-02T07:54:28.246Z,20.00
2023-05-02T07:57:02.086Z,20.00
2023-05-02T07:59:33.762Z,20.10
2023-05-02T08:02:00.729Z,20.10
2023-05-02T08:04:30.205Z,20.10
2023-05-02T08:06:59.440Z,20.10
2023-05-02T08:09:26.875Z,20.20
2023-05-02T08:11:55.963Z,20.20
2023-05-02T08:14:22.925Z,20.30
2023-05-02T08:16:52.175Z,20.40
2023-05-02T08:19:19.040Z,20.50
2023-05-02T08:21:51.297Z,20.60
2023-05-02T08:24:20.387Z,20.80
2023-05-02T08:26:47.241Z,20.90
2023-05-02T08:29:14.081Z,21.10
2023-05-02T08:31:48.083Z,21.30
2023-05-02T08:34:19.971Z,21.40
2023-05-02T08:36:49.661Z,21.60
2023-05-02T08:39:17.113Z,21.70
2023-05-02T08:41:47.029Z,21.80
2023-05-02T08:44:18.504Z,21.90
2023-05-02T08:46:48.849Z,22.10
2023-05-02T08:49:17.593Z,22.20
2023-05-02T08:51:53.866Z,22.20
2023-05-02T08:54:25.675Z,22.30
2023-05-02T08:56:54.688Z,22.30
2023-05-02T08:59:21.567Z,22.30
2023-05-02T09:02:01.189Z,22.30
2023-05-02T09:04:37.520Z,22.20
2023-05-02T09:07:06.779Z,22.10
2023-05-02T09:09:37.713Z,22.00
2023-05-02T09:12:04.791Z,21.90
2023-05-02T09:14:36.655Z,21.70
2023-05-02T09:17:03.841Z,21.60
2023-05-02T09:19:33.791Z,21.50
2023-05-02T09:22:03.550Z,21.40
2023-05-02T09:24:30.682Z,21.20
2023-05-02T09:27:07.915Z,21.10
2023-05-02T09:29:38.969Z,21.00
2023-05-02T09:32:06.871Z,20.90
2023-05-02T09:34:40.086Z,20.80
2023-05-02T09:37:07.011Z,20.70
2023-05-02T09:39:36.298Z,20.70
2023-05-02T09:42:03.568Z,20.60
2023-05-02T09:44:37.950Z,20.60
2023-05-02T09:47:06.891Z,20.50
2023-05-02T09:49:46.955Z,20.40
2023-05-02T09:52:16.263Z,20.40
2023-05-02T09:54:46.724Z,20.40
2023-05-02T09:57:16.338Z,20.30
2023-05-02T09:59:59.429Z,20.30
2023-05-02T10:02:32.413Z,20.30
2023-05-02T10:05:01.998Z,20.30
2023-05-02T10:07:32.323Z,20.30
2023-05-02T10:10:03.627Z,20.30
2023-05-02T10:12:33.681Z,20.30
2023-05-02T10:15:05.489Z,20.30
2023-05-02T10:17:46.325Z,20.30
2023-05-02T10:20:19.934Z,20.30
2023-05-02T10:22:53.260Z,20.30
2023-05-02T10:25:27.678Z,20.30
2023-05-02T10:28:00.098Z,20.30
2023-05-02T10:30:34.016Z,20.30
2023-05-02T10:33:02.142Z,20.40
2023-05-02T10:35:33.103Z,20.40
2023-05-02T10:38:00.705Z,20.40
2023-05-02T10:40:31.026Z,20.40
2023-05-02T10:42:58.304Z,20.50
2023-05-02T10:45:35.144Z,20.50
2023-05-02T10:48:22.555Z,20.50
2023-05-02T10:50:53.997Z,20.50
2023-05-02T10:53:26.163Z,20.50
2023-05-02T10:56:22.106Z,20.30
2023-05-02T10:58:53.677Z,20.50
2023-05-02T11:01:29.750Z,20.60
2023-05-02T11:04:11.326Z,20.60
2023-05-02T11:07:03.772Z,20.70
2023-05-02T11:09:32.403Z,20.70
2023-05-02T11:12:01.482Z,20.80
2023-05-02T11:14:31.086Z,20.80
2023-05-02T11:17:00.607Z,20.90
2023-05-02T11:19:31.432Z,20.90
2023-05-02T11:22:23.206Z,21.00
2023-05-02T11:24:53.590Z,21.00
2023-05-02T11:27:33.446Z,21.10
2023-05-02T11:30:10.154Z,21.10
2023-05-02T11:32:47.601Z,21.20
2023-05-02T11:35:18.767Z,21.30
2023-05-02T11:37:56.768Z,21.30
2023-05-02T11:40:30.728Z,21.30
2023-05-02T11:43:01.364Z,21.40
2023-05-02T11:45:39.241Z,21.50
2023-05-02T11:48:07.620Z,21.50
2023-05-02T11:50:55.864Z,21.60
2023-05-02T11:53:25.984Z,21.60
2023-05-02T11:56:02.090Z,21.70
2023-05-02T11:58:33.625Z,21.70
2023-05-02T12:01:15.720Z,21.70
2023-05-02T12:03:42.949Z,21.70
2023-05-02T12:06:20.997Z,21.80
2023-05-02T12:08:50.493Z,21.80
2023-05-02T12:11:17.450Z,21.80
2023-05-02T12:13:49.803Z,21.90
2023-05-02T12:16:18.241Z,22.00
2023-05-02T12:18:48.200Z,22.10
2023-05-02T12:21:15.934Z,22.10
2023-05-02T12:23:46.388Z,22.30
2023-05-02T12:26:31.872Z,22.30
2023-05-02T12:29:08.158Z,22.40
2023-05-02T12:31:35.028Z,22.40
2023-05-02T12:34:02.242Z,22.40
2023-05-02T12:36:29.505Z,22.40
2023-05-02T12:39:00.257Z,22.40
2023-05-02T12:41:35.479Z,22.40
2023-05-02T12:44:07.892Z,22.40
2023-05-02T12:46:35.095Z,22.40
2023-05-02T12:49:08.408Z,22.40
2023-05-02T12:51:36.870Z,22.40
2023-05-02T12:54:07.106Z,22.40
2023-05-02T12:56:44.126Z,22.50
2023-05-02T12:59:29.979Z,22.50
2023-05-02T13:01:57.446Z,22.50
2023-05-02T13:04:46.919Z,22.60
2023-05-02T13:07:16.257Z,22.60
2023-05-02T13:09:45.345Z,22.70
2023-05-02T13:12:17.678Z,22.80
2023-05-02T13:14:49.665Z,22.80
2023-05-02T13:17:19.065Z,22.80
2023-05-02T13:19:57.770Z,22.90
2023-05-02T13:22:29.924Z,22.90
2023-05-02T13:24:59.014Z,23.00
2023-05-02T13:27:26.510Z,23.00
2023-05-02T13:29:55.674Z,23.00
2023-05-02T13:32:27.461Z,23.00
2023-05-02T13:34:54.495Z,23.00
2023-05-02T13:37:21.570Z,23.00
2023-05-02T13:39:53.240Z,22.90
2023-05-02T13:42:20.125Z,22.90
2023-05-02T13:44:49.197Z,22.90
2023-05-02T13:47:18.608Z,22.80
2023-05-02T13:49:47.938Z,22.80
2023-05-02T13:52:17.096Z,22.70
2023-05-02T13:54:46.445Z,22.70
2023-05-02T13:57:15.461Z,22.70
2023-05-02T13:59:42.410Z,22.70
2023-05-02T14:02:11.867Z,22.60
2023-05-02T14:04:38.774Z,22.60
2023-05-02T14:07:05.807Z,22.60
2023-05-02T14:09:32.669Z,22.60
2023-05-02T14:11:59.637Z,22.60
2023-05-02T14:14:26.567Z,22.60
2023-05-02T14:16:53.470Z,22.60
2023-05-02T14:19:25.064Z,22.60
2023-05-02T14:21:51.941Z,22.60
2023-05-02T14:24:23.605Z,22.60
2023-05-02T14:26:50.704Z,22.60
2023-05-02T14:29:18.134Z,22.60
2023-05-02T14:31:47.750Z,22.60
2023-05-02T14:34:14.758Z,22.70
2023-05-02T14:36:44.116Z,22.70
2023-05-02T14:39:11.312Z,22.70
2023-05-02T14:41:43.173Z,22.80
2023-05-02T14:44:10.035Z,22.80
2023-05-02T14:46:40.215Z,22.80
2023-05-02T14:49:12.127Z,22.80
2023-05-02T14:51:40.523Z,22.80
2023-05-02T14:54:12.448Z,22.90
2023-05-02T14:56:44.045Z,22.80
2023-05-02T14:59:11.105Z,22.90
2023-05-02T15:01:38.041Z,22.80
2023-05-02T15:04:08.607Z,22.80
2023-05-02T15:06:40.549Z,22.80
2023-05-02T15:09:11.084Z,22.80
2023-05-02T15:11:40.231Z,22.80
2023-05-02T15:14:07.105Z,22.70
2023-05-02T15:16:39.335Z,22.70
2023-05-02T15:19:11.004Z,22.60
2023-05-02T15:21:37.963Z,22.60
2023-05-02T15:24:07.314Z,22.60
2023-05-02T15:26:40.483Z,22.60
2023-05-02T15:29:11.011Z,22.60
2023-05-02T15:31:40.519Z,22.60
2023-05-02T15:34:09.892Z,22.50
2023-05-02T15:36:43.083Z,22.50
2023-05-02T15:39:12.086Z,22.50
2023-05-02T15:41:39.114Z,22.50
2023-05-02T15:44:06.010Z,22.50
2023-05-02T15:46:33.014Z,22.50
2023-05-02T15:48:59.851Z,22.40
2023-05-02T15:51:28.981Z,22.40
2023-05-02T15:53:56.281Z,22.40
2023-05-02T15:56:23.195Z,22.40
2023-05-02T15:58:50.128Z,22.40
2023-05-02T16:01:17.078Z,22.40
2023-05-02T16:03:44.075Z,22.40
2023-05-02T16:06:11.278Z,22.30
2023-05-02T16:08:38.224Z,22.30
2023-05-02T16:11:05.296Z,22.30
2023-05-02T16:13:32.345Z,22.20
2023-05-02T16:15:59.355Z,22.20
2023-05-02T16:18:29.144Z,22.20
2023-05-02T16:20:59.506Z,22.20
2023-05-02T16:23:27.190Z,22.20
2023-05-02T16:26:01.554Z,22.20
2023-05-02T16:28:33.298Z,22.20
2023-05-02T16:31:07.758Z,22.20
2023-05-02T16:33:34.668Z,22.20
2023-05-02T16:36:03.542Z,22.20
2023-05-02T16:38:32.783Z,22.10
2023-05-02T16:41:10.244Z,22.20
2023-05-02T16:43:37.695Z,22.20
2023-05-02T16:46:07.200Z,22.20
2023-05-02T16:48:38.787Z,22.20
2023-05-02T16:51:05.878Z,22.20
2023-05-02T16:53:37.389Z,22.20
2023-05-02T16:56:06.503Z,22.20
2023-05-02T16:58:35.892Z,21.90
2023-05-02T17:01:05.468Z,22.10
2023-05-02T17:03:34.845Z,22.10
2023-05-02T17:06:03.980Z,22.10
2023-05-02T17:08:30.830Z,22.00
2023-05-02T17:11:00.052Z,22.00
2023-05-02T17:13:27.047Z,22.00
2023-05-02T17:15:57.543Z,21.90
2023-05-02T17:18:27.995Z,21.90
2023-05-02T17:20:55.765Z,21.90
2023-05-02T17:23:24.886Z,21.80
2023-05-02T17:25:51.993Z,21.80
2023-05-02T17:28:20.053Z,21.80
2023-05-02T17:30:47.802Z,21.80
2023-05-02T17:33:14.674Z,21.70
2023-05-02T17:35:42.279Z,21.70
2023-05-02T17:38:11.434Z,21.70
2023-05-02T17:40:38.509Z,21.70
2023-05-02T17:43:05.675Z,21.60
2023-05-02T17:45:32.762Z,21.60
2023-05-02T17:48:00.397Z,21.60
2023-05-02T17:50:28.931Z,21.60
2023-05-02T17:52:56.179Z,21.60
2023-05-02T17:55:23.054Z,21.50
2023-05-02T17:57:49.979Z,21.50
2023-05-02T18:00:19.534Z,21.50
2023-05-02T18:02:46.536Z,21.50
2023-05-02T18:05:18.018Z,21.40
2023-05-02T18:07:44.776Z,21.40
2023-05-02T18:10:11.959Z,21.10
2023-05-02T18:12:41.984Z,21.30
2023-05-02T18:15:09.343Z,21.30
2023-05-02T18:17:37.556Z,21.30
2023-05-02T18:20:09.992Z,21.30
2023-05-02T18:22:37.923Z,21.20
2023-05-02T18:25:08.233Z,21.20
2023-05-02T18:27:35.224Z,21.10
2023-05-02T18:30:04.860Z,21.10
2023-05-02T18:32:36.991Z,21.10
2023-05-02T18:35:09.556Z,21.10
2023-05-02T18:37:36.756Z,21.00
2023-05-02T18:40:03.884Z,20.90
2023-05-02T18:42:33.285Z,20.90
2023-05-02T18:45:01.179Z,20.90
2023-05-02T18:47:31.118Z,20.80
2023-05-02T18:49:59.615Z,20.80
2023-05-02T18:52:26.778Z,20.70
2023-05-02T18:54:56.703Z,20.70
2023-05-02T18:57:23.664Z,20.70
2023-05-02T18:59:53.571Z,20.60
2023-05-02T19:02:25.183Z,20.60
2023-05-02T19:04:52.253Z,20.50
2023-05-02T19:07:19.123Z,20.50
2023-05-02T19:09:48.176Z,20.40
2023-05-02T19:12:15.025Z,20.40
2023-05-02T19:14:42.119Z,20.30
2023-05-02T19:17:09.044Z,20.30
2023-05-02T19:19:35.968Z,20.20
2023-05-02T19:22:05.140Z,20.10
2023-05-02T19:24:34.292Z,20.10
2023-05-02T19:27:07.727Z,20.00
2023-05-02T19:29:39.708Z,20.00
2023-05-02T19:32:11.308Z,19.90
2023-05-02T19:34:38.307Z,19.80
2023-05-02T19:37:07.885Z,19.80
2023-05-02T19:39:34.730Z,19.70
2023-05-02T19:42:04.253Z,19.60
2023-05-02T19:44:33.302Z,19.60
2023-05-02T19:47:00.338Z,19.50
2023-05-02T19:49:29.492Z,19.40
2023-05-02T19:51:58.941Z,19.40
2023-05-02T19:54:28.463Z,19.30
2023-05-02T19:56:57.513Z,19.30
2023-05-02T19:59:24.586Z,19.20
2023-05-02T20:01:51.627Z,19.20
2023-05-02T20:04:21.223Z,19.20
2023-05-02T20:06:50.641Z,19.10
2023-05-02T20:09:17.565Z,19.10
2023-05-02T20:11:44.584Z,19.00
2023-05-02T20:14:11.525Z,19.00
2023-05-02T20:16:40.932Z,18.90
2023-05-02T20:19:10.088Z,18.80
2023-05-02T20:21:40.268Z,18.80
2023-05-02T20:24:07.921Z,18.70
2023-05-02T20:26:34.822Z,18.70
2023-05-02T20:29:03.506Z,18.70
2023-05-02T20:31:30.670Z,18.60
2023-05-02T20:33:57.558Z,18.60
2023-05-02T20:36:24.516Z,18.60
2023-05-02T20:38:51.503Z,18.50
2023-05-02T20:41:18.355Z,18.50
2023-05-02T20:43:45.717Z,18.50
2023-05-02T20:46:16.213Z,18.40
2023-05-02T20:48:45.579Z,18.40
2023-05-02T20:51:17.590Z,18.40
2023-05-02T20:53:44.731Z,18.40
2023-05-02T20:56:11.566Z,18.30
2023-05-02T20:58:41.451Z,18.30
2023-05-02T21:01:08.364Z,18.30
2023-05-02T21:03:39.274Z,18.20
2023-05-02T21:06:08.555Z,18.10
2023-05-02T21:08:40.268Z,18.10
2023-05-02T21:11:16.598Z,18.10
2023-05-02T21:13:43.950Z,18.00
2023-05-02T21:16:18.826Z,18.00
2023-05-02T21:18:49.688Z,17.90
2023-05-02T21:21:18.716Z,17.90
2023-05-02T21:23:47.957Z,17.80
2023-05-02T21:26:19.765Z,17.80
2023-05-02T21:28:46.796Z,17.70
2023-05-02T21:31:13.769Z,17.70
2023-05-02T21:33:41.527Z,17.60
2023-05-02T21:36:11.107Z,17.60
2023-05-02T21:38:41.105Z,17.50
2023-05-02T21:41:10.232Z,17.50
2023-05-02T21:43:44.933Z,17.40
2023-05-02T21:46:12.452Z,17.40
2023-05-02T21:48:39.676Z,17.40
2023-05-02T21:51:11.348Z,17.30
2023-05-02T21:53:38.478Z,17.30
2023-05-02T21:56:10.342Z,17.30
2023-05-02T21:58:37.326Z,17.30
2023-05-02T22:01:04.359Z,17.20
2023-05-02T22:03:33.806Z,17.20
2023-05-02T22:06:05.764Z,17.20
2023-05-02T22:08:36.243Z,17.10
2023-05-02T22:11:10.584Z,17.10
2023-05-02T22:13:39.973Z,17.00
2023-05-02T22:16:08.076Z,17.00
2023-05-02T22:18:37.402Z,17.00
2023-05-02T22:21:04.427Z,17.00
2023-05-02T22:23:33.551Z,16.90
2023-05-02T22:26:03.020Z,16.90
2023-05-02T22:28:32.119Z,16.90
2023-05-02T22:31:01.222Z,16.90
2023-05-02T22:33:28.096Z,16.80
2023-05-02T22:35:57.049Z,16.80
2023-05-02T22:38:27.091Z,16.80
2023-05-02T22:40:53.929Z,16.80
2023-05-02T22:43:20.810Z,16.80
2023-05-02T22:45:49.276Z,16.70
2023-05-02T22:48:18.289Z,16.80
2023-05-02T22:50:48.797Z,16.70
2023-05-02T22:53:21.612Z,16.70
2023-05-02T22:55:48.556Z,16.60
2023-05-02T22:58:17.753Z,16.60
2023-05-02T23:00:44.677Z,16.60
2023-05-02T23:03:14.680Z,16.50
2023-05-02T23:05:44.052Z,16.50
2023-05-02T23:08:15.821Z,16.40
2023-05-02T23:10:45.216Z,16.40
2023-05-02T23:13:12.809Z,16.40
2023-05-02T23:15:40.073Z,16.40
2023-05-02T23:18:07.248Z,16.30
2023-05-02T23:20:34.501Z,16.30
2023-05-02T23:23:07.308Z,16.30
2023-05-02T23:25:37.832Z,16.20
2023-05-02T23:28:07.404Z,16.20
2023-05-02T23:30:40.342Z,16.20
2023-05-02T23:33:09.994Z,16.20
2023-05-02T23:35:39.042Z,16.10
2023-05-02T23:38:09.610Z,16.10
2023-05-02T23:40:41.425Z,16.10
2023-05-02T23:43:09.121Z,16.00
2023-05-02T23:45:36.228Z,16.00
2023-05-02T23:48:05.409Z,16.00
2023-05-02T23:50:32.913Z,15.90
2023-05-02T23:53:00.017Z,15.90
2023-05-02T23:55:27.029Z,15.80
2023-05-02T23:57:56.594Z,15.80
